KCMA

Details ICAO KCMA
Name CAMARILLO
Region United States
Timezone America/Los_Angeles (UTC-7.0)
Plans Departing 83
Arriving 51
Stats Elevation 77 ft / 23 m (AMSL)
Location 34.213745° -119.093836°
Runways 1
Magnetic Variation 12.154° E
Sunrise 2018-05-23 12:50:48 UTC / 2018-05-23 05:50:48 Local
Sunset 2018-05-24 02:58:22 UTC / 2018-05-23 19:58:22 Local
Advertisement - Login to hide

Runways

ID Width Length Bearing (true) Bearing (mag) Surface Threshold Offset Overrun Length
08 151 ft / 46 m 6,019 ft / 1,835 m 90.56° 78.41° Asphalt 0 ft / 0 m 1,076 ft / 328 m
26 151 ft / 46 m 6,019 ft / 1,835 m 270.57° 258.42° Asphalt 0 ft / 0 m 2,861 ft / 872 m

Map

Weather


0- 5 10 15 20 25 30 35+ Temperature / ° C

Clouds and Precipitation
Forecast for 2018-05-23 18:00 UTC. Updated 11 minutes ago

Ground ~20,000 ft ~40,000 ft Winds

METAR

KCMA 231655Z 24003KT 10SM OVC016 16/11 A2998 RMK AO2 SLP161 T01560111

TAF

TAF AMD KCMA 231511Z 2315/2412 31003KT P6SM OVC012 FM231800 23006KT P6SM BKN035 FM232100 23010KT P6SM SCT050 FM240300 VRB03KT P6SM SKC FM240600 VRB03KT P6SM BKN015 FM241100 VRB03KT P6SM OVC025

Frequencies

Recorded 126.02 MHz ATIS
Clearance 120.75 MHz CLNC DEL
Ground 121.80 MHz GND
Approach 124.70 MHz PT MUGU APP/DEP
Unicom 128.20 MHz CTAF
Clearance 121.80 MHz CLNC DEL
Tower 128.20 MHz TWR
Warning: Do not use this data for real-world aviation or navigation. No guarantee of current accuracy is given.